createdAt,value
2018-11-27T00:00:00.446Z,33.20
2018-11-27T00:01:00.301Z,32.90
2018-11-27T00:02:00.195Z,32.70
2018-11-27T00:03:00.213Z,33.00
2018-11-27T00:03:59.995Z,31.80
2018-11-27T00:04:59.904Z,31.10
2018-11-27T00:05:59.787Z,32.00
2018-11-27T00:06:59.688Z,33.70
2018-11-27T00:07:59.590Z,32.40
2018-11-27T00:08:59.481Z,32.00
2018-11-27T00:09:59.505Z,33.70
2018-11-27T00:10:59.277Z,32.20
2018-11-27T00:11:59.179Z,31.80
2018-11-27T00:12:59.075Z,31.80
2018-11-27T00:13:58.972Z,33.60
2018-11-27T00:14:58.884Z,34.00
2018-11-27T00:15:58.768Z,33.40
2018-11-27T00:16:58.780Z,33.80
2018-11-27T00:17:58.795Z,34.40
2018-11-27T00:18:58.460Z,33.20
2018-11-27T00:19:58.378Z,33.60
2018-11-27T00:20:58.255Z,33.90
2018-11-27T00:21:58.171Z,34.10
2018-11-27T00:22:58.050Z,34.70
2018-11-27T00:23:57.957Z,34.50
2018-11-27T00:24:57.864Z,33.30
2018-11-27T00:25:57.744Z,34.40
2018-11-27T00:26:57.642Z,33.90
2018-11-27T00:27:57.550Z,33.60
2018-11-27T00:28:57.438Z,33.90
2018-11-27T00:29:57.353Z,34.30
2018-11-27T00:30:57.351Z,33.50
2018-11-27T00:31:57.132Z,33.00
2018-11-27T00:32:57.030Z,32.40
2018-11-27T00:33:56.926Z,32.60
2018-11-27T00:34:56.827Z,33.20
2018-11-27T00:35:56.740Z,32.50
2018-11-27T00:36:56.620Z,34.10
2018-11-27T00:37:56.517Z,32.30
2018-11-27T00:38:56.417Z,34.40
2018-11-27T00:39:56.316Z,32.70
2018-11-27T00:40:56.227Z,33.50
2018-11-27T00:41:56.109Z,33.20
2018-11-27T00:42:56.007Z,33.80
2018-11-27T00:43:55.906Z,34.70
2018-11-27T00:44:55.804Z,33.80
2018-11-27T00:45:55.718Z,34.70
2018-11-27T00:46:55.598Z,33.30
2018-11-27T00:47:55.499Z,34.80
2018-11-27T00:48:55.395Z,34.40
2018-11-27T00:49:55.299Z,35.70
2018-11-27T00:50:55.211Z,35.10
2018-11-27T00:51:55.089Z,35.70
2018-11-27T00:52:54.987Z,36.20
2018-11-27T00:53:54.886Z,35.20
2018-11-27T00:54:58.681Z,34.70
2018-11-27T00:55:54.700Z,35.00
2018-11-27T00:56:54.583Z,34.90
2018-11-27T00:57:54.477Z,34.70
2018-11-27T00:58:54.374Z,32.70
2018-11-27T00:59:54.275Z,32.60
2018-11-27T01:00:54.187Z,33.30
2018-11-27T01:01:54.071Z,33.30
2018-11-27T01:02:53.972Z,33.70
2018-11-27T01:03:53.867Z,34.40
2018-11-27T01:04:53.761Z,31.20
2018-11-27T01:05:53.681Z,31.40
2018-11-27T01:06:53.558Z,33.50
2018-11-27T01:07:53.476Z,32.00
2018-11-27T01:08:53.354Z,31.00
2018-11-27T01:09:53.255Z,30.80
2018-11-27T01:10:53.168Z,32.30
2018-11-27T01:11:53.047Z,33.00
2018-11-27T01:12:52.946Z,33.80
2018-11-27T01:13:52.843Z,32.80
2018-11-27T01:14:52.742Z,32.30
2018-11-27T01:15:52.656Z,32.70
2018-11-27T01:16:52.543Z,33.30
2018-11-27T01:17:52.435Z,31.00
2018-11-27T01:18:52.335Z,32.00
2018-11-27T01:19:52.231Z,32.10
2018-11-27T01:20:52.146Z,33.30
2018-11-27T01:21:52.027Z,32.70
2018-11-27T01:22:51.925Z,31.40
2018-11-27T01:23:51.825Z,30.10
2018-11-27T01:24:51.719Z,30.40
2018-11-27T01:25:51.635Z,31.90
2018-11-27T01:26:51.519Z,30.60
2018-11-27T01:27:51.416Z,28.80
2018-11-27T01:28:51.313Z,30.40
2018-11-27T01:29:51.211Z,30.20
2018-11-27T01:30:51.126Z,31.80
2018-11-27T01:31:51.007Z,29.30
2018-11-27T01:32:50.905Z,30.80
2018-11-27T01:33:50.803Z,31.00
2018-11-27T01:34:50.703Z,29.40
2018-11-27T01:35:50.618Z,30.20
2018-11-27T01:36:50.501Z,31.10
2018-11-27T01:37:50.399Z,32.20
2018-11-27T01:38:50.295Z,30.50
2018-11-27T01:39:50.194Z,31.40
2018-11-27T01:40:50.106Z,31.60
2018-11-27T01:41:49.991Z,31.50
2018-11-27T01:42:49.888Z,30.00
2018-11-27T01:43:49.786Z,31.90
2018-11-27T01:44:49.682Z,31.30
2018-11-27T01:45:49.596Z,33.10
2018-11-27T01:46:49.479Z,32.10
2018-11-27T01:47:49.377Z,29.90
2018-11-27T01:48:49.275Z,30.40
2018-11-27T01:49:49.174Z,28.80
2018-11-27T01:50:49.088Z,29.70
2018-11-27T01:51:48.972Z,31.30
2018-11-27T01:52:48.865Z,30.10
2018-11-27T01:53:48.875Z,31.10
2018-11-27T01:54:48.661Z,31.60
2018-11-27T01:55:48.578Z,31.30
2018-11-27T01:56:48.457Z,32.50
2018-11-27T01:57:48.357Z,32.20
2018-11-27T01:58:48.255Z,32.40
2018-11-27T01:59:48.155Z,33.50
2018-11-27T02:00:48.171Z,32.60
2018-11-27T02:01:47.948Z,35.60
2018-11-27T02:02:47.844Z,33.30
2018-11-27T02:03:47.748Z,33.90
2018-11-27T02:04:47.642Z,34.70
2018-11-27T02:05:47.555Z,34.30
2018-11-27T02:06:47.437Z,34.20
2018-11-27T02:07:47.335Z,35.00
2018-11-27T02:08:47.233Z,34.30
2018-11-27T02:09:47.134Z,34.00
2018-11-27T02:10:47.050Z,36.40
2018-11-27T02:11:46.929Z,33.60
2018-11-27T02:12:46.825Z,36.20
2018-11-27T02:13:46.721Z,36.70
2018-11-27T02:14:46.721Z,37.80
2018-11-27T02:15:46.534Z,36.40
2018-11-27T02:16:46.415Z,38.20
2018-11-27T02:17:46.312Z,38.90
2018-11-27T02:18:46.211Z,40.40
2018-11-27T02:19:46.111Z,38.50
2018-11-27T02:20:46.006Z,41.40
2018-11-27T02:21:46.025Z,41.80
2018-11-27T02:22:45.806Z,41.80
2018-11-27T02:23:45.699Z,41.80
2018-11-27T02:24:45.597Z,41.10
2018-11-27T02:25:45.496Z,41.10
2018-11-27T02:26:45.411Z,39.40
2018-11-27T02:27:45.290Z,39.50
2018-11-27T02:28:45.298Z,39.70
2018-11-27T02:29:45.085Z,39.50
2018-11-27T02:30:44.983Z,40.30
2018-11-27T02:31:44.897Z,39.20
2018-11-27T02:32:44.778Z,41.20
2018-11-27T02:33:44.682Z,42.00
2018-11-27T02:34:44.573Z,41.90
2018-11-27T02:35:44.581Z,41.10
2018-11-27T02:36:44.383Z,41.50
2018-11-27T02:37:44.264Z,42.40
2018-11-27T02:38:44.162Z,42.40
2018-11-27T02:39:44.061Z,41.10
2018-11-27T02:40:43.971Z,41.70
2018-11-27T02:41:43.878Z,43.70
2018-11-27T02:42:43.892Z,42.20
2018-11-27T02:43:43.655Z,43.50
2018-11-27T02:44:43.547Z,42.10
2018-11-27T02:45:43.448Z,41.80
2018-11-27T02:46:43.369Z,40.30
2018-11-27T02:47:43.240Z,39.90
2018-11-27T02:48:43.138Z,41.90
2018-11-27T02:49:43.158Z,40.50
2018-11-27T02:50:42.936Z,41.20
2018-11-27T02:51:42.851Z,38.20
2018-11-27T02:52:42.731Z,38.90
2018-11-27T02:53:42.631Z,40.60
2018-11-27T02:54:42.527Z,40.50
2018-11-27T02:55:42.422Z,41.50
2018-11-27T02:56:42.443Z,40.90
2018-11-27T02:57:42.218Z,40.00
2018-11-27T02:58:42.119Z,39.30
2018-11-27T02:59:42.018Z,41.30
2018-11-27T03:00:41.912Z,40.70
2018-11-27T03:01:41.867Z,40.50
2018-11-27T03:02:41.714Z,39.60
2018-11-27T03:03:41.706Z,40.80
2018-11-27T03:04:41.502Z,40.10
2018-11-27T03:05:41.405Z,38.50
2018-11-27T03:06:41.313Z,39.10
2018-11-27T03:07:41.194Z,39.60
2018-11-27T03:08:41.091Z,37.00
2018-11-27T03:09:40.989Z,36.30
2018-11-27T03:10:41.005Z,36.90
2018-11-27T03:11:40.806Z,36.30
2018-11-27T03:12:40.682Z,34.40
2018-11-27T03:13:40.585Z,36.10
2018-11-27T03:14:40.479Z,35.70
2018-11-27T03:15:40.377Z,33.30
2018-11-27T03:16:40.291Z,33.40
2018-11-27T03:17:40.293Z,35.40
2018-11-27T03:18:40.174Z,35.40
2018-11-27T03:19:39.966Z,35.30
2018-11-27T03:20:39.865Z,36.30
2018-11-27T03:21:39.783Z,37.30
2018-11-27T03:22:39.677Z,35.40
2018-11-27T03:23:39.687Z,35.50
2018-11-27T03:24:39.455Z,35.30
2018-11-27T03:25:39.355Z,36.20
2018-11-27T03:26:39.269Z,35.50
2018-11-27T03:27:39.150Z,34.10
2018-11-27T03:28:39.046Z,36.00
2018-11-27T03:29:38.944Z,35.40
2018-11-27T03:30:38.876Z,36.10
2018-11-27T03:31:38.760Z,35.60
2018-11-27T03:32:38.639Z,35.40
2018-11-27T03:33:38.536Z,36.70
2018-11-27T03:34:38.433Z,37.10
2018-11-27T03:35:38.330Z,35.90
2018-11-27T03:36:38.258Z,36.00
2018-11-27T03:37:38.126Z,34.90
2018-11-27T03:38:38.024Z,35.10
2018-11-27T03:39:37.921Z,35.00
2018-11-27T03:40:37.818Z,34.50
2018-11-27T03:41:37.731Z,33.50
2018-11-27T03:42:37.612Z,37.00
2018-11-27T03:43:37.514Z,35.80
2018-11-27T03:44:37.407Z,39.00
2018-11-27T03:45:37.308Z,34.10
2018-11-27T03:46:37.223Z,35.20
2018-11-27T03:47:37.109Z,33.80
2018-11-27T03:48:36.997Z,34.20
2018-11-27T03:49:36.896Z,33.10
2018-11-27T03:50:36.794Z,34.00
2018-11-27T03:51:36.709Z,33.00
2018-11-27T03:52:36.592Z,32.70
2018-11-27T03:53:36.488Z,32.30
2018-11-27T03:54:36.401Z,33.90
2018-11-27T03:55:36.283Z,31.90
2018-11-27T03:56:36.197Z,32.90
2018-11-27T03:57:36.079Z,30.70
2018-11-27T03:58:35.975Z,30.50
2018-11-27T03:59:35.872Z,31.00
2018-11-27T04:00:35.773Z,28.50
2018-11-27T04:01:35.683Z,31.80
2018-11-27T04:02:35.564Z,30.60
2018-11-27T04:03:35.464Z,31.40
2018-11-27T04:04:35.361Z,31.40
2018-11-27T04:05:35.257Z,30.20
2018-11-27T04:06:35.163Z,30.70
2018-11-27T04:07:35.068Z,31.00
2018-11-27T04:08:34.950Z,31.00
2018-11-27T04:09:34.846Z,29.40
2018-11-27T04:10:34.745Z,28.90
2018-11-27T04:11:34.646Z,29.80
2018-11-27T04:12:34.575Z,30.50
2018-11-27T04:13:34.437Z,31.10
2018-11-27T04:14:34.630Z,31.60
2018-11-27T04:15:34.233Z,31.30
2018-11-27T04:16:34.134Z,32.80
2018-11-27T04:17:34.047Z,32.00
2018-11-27T04:18:33.925Z,33.00
2018-11-27T04:19:33.857Z,33.40
2018-11-27T04:20:33.723Z,31.40
2018-11-27T04:21:33.642Z,33.40
2018-11-27T04:22:33.530Z,32.50
2018-11-27T04:23:33.420Z,31.40
2018-11-27T04:24:33.312Z,31.50
2018-11-27T04:25:33.206Z,31.30
2018-11-27T04:26:33.106Z,30.70
2018-11-27T04:27:33.017Z,28.90
2018-11-27T04:28:32.900Z,28.70
2018-11-27T04:29:32.796Z,29.70
2018-11-27T04:30:32.694Z,29.80
2018-11-27T04:31:32.593Z,30.20
2018-11-27T04:32:32.509Z,30.20
2018-11-27T04:33:32.386Z,29.50
2018-11-27T04:34:32.291Z,29.80
2018-11-27T04:35:32.183Z,30.80
2018-11-27T04:36:32.079Z,27.70
2018-11-27T04:37:31.995Z,27.60
2018-11-27T04:38:31.875Z,27.40
2018-11-27T04:39:31.774Z,28.60
2018-11-27T04:40:31.669Z,30.40
2018-11-27T04:41:31.693Z,28.80
2018-11-27T04:42:31.481Z,29.20
2018-11-27T04:43:31.364Z,28.60
2018-11-27T04:44:31.259Z,29.00
2018-11-27T04:45:31.163Z,29.40
2018-11-27T04:46:31.055Z,27.40
2018-11-27T04:47:30.969Z,27.70
2018-11-27T04:48:30.857Z,27.40
2018-11-27T04:49:30.751Z,28.50
2018-11-27T04:50:30.646Z,28.30
2018-11-27T04:51:30.542Z,29.30
2018-11-27T04:52:30.459Z,28.90
2018-11-27T04:53:30.337Z,29.10
2018-11-27T04:54:30.234Z,30.20
2018-11-27T04:55:30.236Z,28.80
2018-11-27T04:56:30.028Z,28.60
2018-11-27T04:57:29.943Z,28.20
2018-11-27T04:58:29.823Z,27.60
2018-11-27T04:59:29.740Z,29.00
2018-11-27T05:00:29.618Z,27.90
2018-11-27T05:01:29.520Z,28.50
2018-11-27T05:02:30.373Z,28.70
2018-11-27T05:03:29.314Z,27.40
2018-11-27T05:04:29.208Z,27.10
2018-11-27T05:05:29.108Z,26.30
2018-11-27T05:06:29.004Z,27.40
2018-11-27T05:07:28.917Z,28.00
2018-11-27T05:08:28.812Z,27.80
2018-11-27T05:09:28.810Z,27.60
2018-11-27T05:10:28.593Z,28.00
2018-11-27T05:11:28.491Z,28.10
2018-11-27T05:12:28.406Z,27.00
2018-11-27T05:13:28.285Z,27.50
2018-11-27T05:14:28.184Z,26.30
2018-11-27T05:15:28.086Z,27.50
2018-11-27T05:16:28.084Z,27.40
2018-11-27T05:17:27.892Z,27.30
2018-11-27T05:18:27.771Z,25.90
2018-11-27T05:19:27.671Z,26.30
2018-11-27T05:20:27.566Z,26.90
2018-11-27T05:21:27.466Z,27.30
2018-11-27T05:22:27.377Z,25.50
2018-11-27T05:23:27.369Z,25.70
2018-11-27T05:24:27.159Z,26.20
2018-11-27T05:25:27.057Z,27.20
2018-11-27T05:26:26.952Z,26.40
2018-11-27T05:27:26.864Z,26.60
2018-11-27T05:28:26.748Z,26.00
2018-11-27T05:29:26.643Z,25.20
2018-11-27T05:30:26.653Z,25.80
2018-11-27T05:31:26.439Z,26.60
2018-11-27T05:32:26.351Z,26.20
2018-11-27T05:33:26.235Z,26.60
2018-11-27T05:34:26.131Z,25.80
2018-11-27T05:35:26.029Z,25.60
2018-11-27T05:36:25.927Z,26.60
2018-11-27T05:37:25.937Z,25.80
2018-11-27T05:38:25.720Z,25.40
2018-11-27T05:39:25.619Z,27.50
2018-11-27T05:40:25.514Z,26.20
2018-11-27T05:41:25.411Z,27.70
2018-11-27T05:42:25.326Z,27.50
2018-11-27T05:43:25.206Z,27.70
2018-11-27T05:44:25.210Z,25.70
2018-11-27T05:45:25.003Z,25.60
2018-11-27T05:46:24.900Z,26.30
2018-11-27T05:47:24.814Z,29.40
2018-11-27T05:48:24.696Z,26.30
2018-11-27T05:49:24.592Z,27.60
2018-11-27T05:50:24.490Z,27.70
2018-11-27T05:51:24.488Z,24.90
2018-11-27T05:52:24.286Z,25.20
2018-11-27T05:53:24.200Z,26.00
2018-11-27T05:54:24.080Z,26.20
2018-11-27T05:55:23.986Z,26.60
2018-11-27T05:56:23.872Z,26.20
2018-11-27T05:57:23.773Z,26.90
2018-11-27T05:58:23.792Z,26.70
2018-11-27T05:59:23.569Z,25.90
2018-11-27T06:00:23.468Z,25.80
2018-11-27T06:01:23.360Z,26.00
2018-11-27T06:02:23.260Z,26.00
2018-11-27T06:03:23.174Z,26.00
2018-11-27T06:04:23.160Z,25.10
2018-11-27T06:05:22.951Z,25.10
2018-11-27T06:06:22.847Z,24.70
2018-11-27T06:07:22.747Z,25.20
2018-11-27T06:08:22.658Z,25.70
2018-11-27T06:09:22.540Z,24.90
2018-11-27T06:10:22.439Z,24.90
2018-11-27T06:11:22.337Z,25.20
2018-11-27T06:12:22.235Z,24.80
2018-11-27T06:13:22.149Z,26.30
2018-11-27T06:14:22.028Z,25.70
2018-11-27T06:15:21.925Z,26.00
2018-11-27T06:16:21.823Z,25.70
2018-11-27T06:17:21.718Z,26.10
2018-11-27T06:18:21.635Z,26.90
2018-11-27T06:19:21.623Z,25.40
2018-11-27T06:20:21.419Z,26.80
2018-11-27T06:21:21.313Z,25.00
2018-11-27T06:22:21.207Z,25.90
2018-11-27T06:23:21.136Z,26.30
2018-11-27T06:24:21.003Z,25.30
2018-11-27T06:25:20.902Z,25.30
2018-11-27T06:26:20.798Z,24.50
2018-11-27T06:27:20.697Z,25.50
2018-11-27T06:28:20.609Z,25.50
2018-11-27T06:29:20.492Z,25.40
2018-11-27T06:30:20.388Z,24.80
2018-11-27T06:31:20.286Z,25.00
2018-11-27T06:32:21.476Z,25.10
2018-11-27T06:33:20.098Z,25.30
2018-11-27T06:34:19.979Z,25.60
2018-11-27T06:35:19.880Z,26.10
2018-11-27T06:36:19.773Z,26.30
2018-11-27T06:37:19.677Z,26.00
2018-11-27T06:38:19.587Z,26.60
2018-11-27T06:39:19.470Z,26.20
2018-11-27T06:40:19.364Z,25.10
2018-11-27T06:41:19.263Z,25.80
2018-11-27T06:42:19.164Z,26.30
2018-11-27T06:43:19.075Z,25.40
2018-11-27T06:44:18.956Z,25.40
2018-11-27T06:45:18.852Z,26.20
2018-11-27T06:46:18.751Z,26.20
2018-11-27T06:47:18.650Z,26.00
2018-11-27T06:48:18.564Z,26.90
2018-11-27T06:49:18.448Z,26.00
2018-11-27T06:50:18.347Z,27.00
2018-11-27T06:51:18.256Z,25.80
2018-11-27T06:52:18.143Z,25.90
2018-11-27T06:53:18.049Z,25.50
2018-11-27T06:54:17.932Z,25.50
2018-11-27T06:55:17.830Z,27.00
2018-11-27T06:56:17.730Z,26.40
2018-11-27T06:57:17.624Z,26.20
2018-11-27T06:58:17.537Z,26.30
2018-11-27T06:59:17.423Z,26.50
2018-11-27T07:00:17.328Z,26.00
2018-11-27T07:01:17.220Z,26.50
2018-11-27T07:02:17.114Z,27.10
2018-11-27T07:03:17.028Z,28.10
2018-11-27T07:04:16.907Z,28.90
2018-11-27T07:05:16.807Z,27.80
2018-11-27T07:06:16.708Z,28.40
2018-11-27T07:07:16.604Z,27.20
2018-11-27T07:08:16.515Z,26.60
2018-11-27T07:09:16.396Z,26.80
2018-11-27T07:10:16.294Z,27.90
2018-11-27T07:11:16.194Z,28.10
2018-11-27T07:12:16.088Z,27.30
2018-11-27T07:13:16.004Z,26.00
2018-11-27T07:14:15.886Z,25.00
2018-11-27T07:15:15.782Z,26.00
2018-11-27T07:16:15.682Z,26.90
2018-11-27T07:17:15.577Z,26.10
2018-11-27T07:18:15.495Z,27.60
2018-11-27T07:19:15.373Z,27.60
2018-11-27T07:20:15.271Z,27.20
2018-11-27T07:21:15.171Z,26.10
2018-11-27T07:22:15.066Z,27.40
2018-11-27T07:23:14.981Z,27.50
2018-11-27T07:24:14.862Z,27.60
2018-11-27T07:25:14.757Z,27.50
2018-11-27T07:26:14.655Z,26.30
2018-11-27T07:27:14.554Z,26.30
2018-11-27T07:28:14.554Z,25.10
2018-11-27T07:29:14.366Z,25.20
2018-11-27T07:30:14.248Z,26.10
2018-11-27T07:31:14.145Z,25.10
2018-11-27T07:32:14.046Z,24.10
2018-11-27T07:33:13.955Z,24.30
2018-11-27T07:34:13.839Z,25.20
2018-11-27T07:35:13.838Z,25.90
2018-11-27T07:36:13.632Z,26.80
2018-11-27T07:37:13.531Z,27.00
2018-11-27T07:38:13.430Z,26.10
2018-11-27T07:39:13.349Z,25.40
2018-11-27T07:40:13.222Z,23.40
2018-11-27T07:41:13.132Z,25.80
2018-11-27T07:42:13.132Z,26.30
2018-11-27T07:43:12.922Z,25.90
2018-11-27T07:44:12.829Z,26.90
2018-11-27T07:45:12.711Z,25.40
2018-11-27T07:46:12.609Z,26.40
2018-11-27T07:47:12.508Z,26.10
2018-11-27T07:48:12.406Z,25.40
2018-11-27T07:49:12.422Z,26.00
2018-11-27T07:50:12.199Z,26.90
2018-11-27T07:51:12.100Z,25.10
2018-11-27T07:52:11.992Z,25.90
2018-11-27T07:53:11.897Z,25.50
2018-11-27T07:54:11.806Z,25.50
2018-11-27T07:55:11.692Z,25.70
2018-11-27T07:56:11.690Z,25.50
2018-11-27T07:57:11.483Z,25.30
2018-11-27T07:58:11.384Z,25.50
2018-11-27T07:59:11.298Z,26.00
2018-11-27T08:00:11.177Z,25.50
2018-11-27T08:01:11.076Z,24.90
2018-11-27T08:02:10.976Z,24.30
2018-11-27T08:03:10.976Z,25.80
2018-11-27T08:04:10.784Z,25.80
2018-11-27T08:05:10.667Z,25.60
2018-11-27T08:06:10.580Z,24.60
2018-11-27T08:07:10.461Z,25.30
2018-11-27T08:08:10.366Z,24.40
2018-11-27T08:09:10.274Z,25.20
2018-11-27T08:10:10.260Z,24.70
2018-11-27T08:11:10.054Z,24.60
2018-11-27T08:12:09.954Z,25.20
2018-11-27T08:13:09.850Z,25.60
2018-11-27T08:14:09.764Z,25.00
2018-11-27T08:15:09.658Z,26.00
2018-11-27T08:16:09.543Z,25.30
2018-11-27T08:17:09.548Z,24.70
2018-11-27T08:18:09.340Z,24.50
2018-11-27T08:19:09.255Z,25.20
2018-11-27T08:20:09.134Z,24.40
2018-11-27T08:21:09.034Z,25.20
2018-11-27T08:22:08.934Z,24.90
2018-11-27T08:23:08.831Z,25.30
2018-11-27T08:24:08.864Z,25.40
2018-11-27T08:25:08.626Z,24.20
2018-11-27T08:26:08.525Z,25.70
2018-11-27T08:27:08.450Z,25.70
2018-11-27T08:28:08.322Z,24.50
2018-11-27T08:29:08.234Z,26.00
2018-11-27T08:30:08.119Z,26.00
2018-11-27T08:31:08.115Z,25.30
2018-11-27T08:32:07.917Z,25.10
2018-11-27T08:33:07.811Z,24.30
2018-11-27T08:34:07.729Z,25.10
2018-11-27T08:35:07.609Z,25.60
2018-11-27T08:36:07.506Z,25.50
2018-11-27T08:37:07.529Z,25.90
2018-11-27T08:38:07.305Z,25.40
2018-11-27T08:39:07.217Z,25.50
2018-11-27T08:40:07.102Z,25.50
2018-11-27T08:41:06.998Z,24.70
2018-11-27T08:42:06.898Z,25.00
2018-11-27T08:43:06.795Z,24.10
2018-11-27T08:44:06.709Z,24.90
2018-11-27T08:45:06.590Z,24.20
2018-11-27T08:46:06.491Z,24.40
2018-11-27T08:47:06.388Z,24.70
2018-11-27T08:48:06.287Z,25.10
2018-11-27T08:49:06.200Z,25.70
2018-11-27T08:50:06.083Z,25.20
2018-11-27T08:51:05.982Z,25.70
2018-11-27T08:52:05.883Z,24.70
2018-11-27T08:53:05.789Z,26.50
2018-11-27T08:54:05.699Z,25.30
2018-11-27T08:55:05.576Z,25.40
2018-11-27T08:56:05.474Z,25.70
2018-11-27T08:57:05.374Z,25.70
2018-11-27T08:58:05.270Z,25.70
2018-11-27T08:59:05.186Z,26.70
2018-11-27T09:00:05.070Z,26.00
2018-11-27T09:01:04.969Z,25.00
2018-11-27T09:02:05.627Z,25.10
2018-11-27T09:03:04.764Z,25.30
2018-11-27T09:04:04.680Z,25.80
2018-11-27T09:05:04.561Z,25.10
2018-11-27T09:06:04.468Z,25.60
2018-11-27T09:07:04.360Z,25.70
2018-11-27T09:08:04.260Z,26.00
2018-11-27T09:09:04.175Z,25.90
2018-11-27T09:10:04.057Z,25.30
2018-11-27T09:11:03.957Z,24.60
2018-11-27T09:12:03.854Z,24.80
2018-11-27T09:13:03.754Z,24.00
2018-11-27T09:14:03.670Z,23.60
2018-11-27T09:15:03.554Z,23.00
2018-11-27T09:16:03.450Z,22.70
2018-11-27T09:17:03.351Z,22.90
2018-11-27T09:18:03.250Z,23.80
2018-11-27T09:19:03.174Z,23.80
2018-11-27T09:20:03.050Z,24.10
2018-11-27T09:21:02.956Z,23.20
2018-11-27T09:22:02.849Z,23.80
2018-11-27T09:23:02.749Z,23.30
2018-11-27T09:24:02.651Z,24.10
2018-11-27T09:25:02.565Z,23.20
2018-11-27T09:26:02.446Z,23.70
2018-11-27T09:27:02.347Z,22.20
2018-11-27T09:28:02.247Z,23.40
2018-11-27T09:29:02.151Z,23.80
2018-11-27T09:30:02.064Z,23.30
2018-11-27T09:31:01.947Z,23.40
2018-11-27T09:32:01.846Z,23.80
2018-11-27T09:33:01.745Z,23.30
2018-11-27T09:34:01.753Z,24.60
2018-11-27T09:35:01.563Z,24.40
2018-11-27T09:36:01.448Z,22.80
2018-11-27T09:37:01.347Z,22.10
2018-11-27T09:38:01.259Z,20.10
2018-11-27T09:39:01.152Z,21.00
2018-11-27T09:40:01.064Z,20.20
2018-11-27T09:41:00.949Z,19.50
2018-11-27T09:42:00.849Z,19.60
2018-11-27T09:43:00.752Z,19.60
2018-11-27T09:44:00.651Z,19.80
2018-11-27T09:45:00.573Z,20.20
2018-11-27T09:46:00.454Z,20.00
2018-11-27T09:47:00.359Z,19.30
2018-11-27T09:48:00.255Z,19.80
2018-11-27T09:49:00.157Z,19.20
2018-11-27T09:50:00.088Z,19.00
2018-11-27T09:50:59.962Z,19.30
2018-11-27T09:51:59.862Z,19.10
2018-11-27T09:52:59.763Z,19.00
2018-11-27T09:53:59.667Z,19.40
2018-11-27T09:54:59.581Z,18.10
2018-11-27T09:55:59.467Z,18.30
2018-11-27T09:56:59.369Z,18.40
2018-11-27T09:57:59.561Z,18.80
2018-11-27T09:58:59.172Z,19.20
2018-11-27T09:59:59.089Z,19.30
2018-11-27T10:00:58.975Z,18.30
2018-11-27T10:01:58.879Z,18.50
2018-11-27T10:02:58.780Z,18.70
2018-11-27T10:03:58.684Z,19.00
2018-11-27T10:04:58.604Z,18.60
2018-11-27T10:05:58.486Z,19.00
2018-11-27T10:06:58.388Z,18.20
2018-11-27T10:07:58.289Z,19.20
2018-11-27T10:08:58.309Z,19.10
2018-11-27T10:09:58.112Z,19.50
2018-11-27T10:10:57.999Z,19.20
2018-11-27T10:11:57.899Z,19.20
2018-11-27T10:12:57.804Z,18.50
2018-11-27T10:13:57.708Z,18.80
2018-11-27T10:14:57.624Z,18.70
2018-11-27T10:15:57.514Z,18.50
2018-11-27T10:16:57.412Z,18.90
2018-11-27T10:17:57.319Z,19.90
2018-11-27T10:18:57.219Z,19.30
2018-11-27T10:19:57.141Z,19.20
2018-11-27T10:20:57.024Z,17.90
2018-11-27T10:21:56.929Z,19.00
2018-11-27T10:22:56.836Z,18.90
2018-11-27T10:23:56.735Z,18.60
2018-11-27T10:24:56.651Z,18.70
2018-11-27T10:25:56.540Z,19.00
2018-11-27T10:26:56.443Z,19.60
2018-11-27T10:27:56.349Z,18.70
2018-11-27T10:28:56.248Z,19.20
2018-11-27T10:29:56.278Z,18.60
2018-11-27T10:30:56.058Z,18.80
2018-11-27T10:31:55.961Z,18.30
2018-11-27T10:32:55.866Z,18.80
2018-11-27T10:33:55.821Z,18.40
2018-11-27T10:34:55.690Z,19.50
2018-11-27T10:35:55.576Z,18.70
2018-11-27T10:36:55.582Z,18.50
2018-11-27T10:37:55.384Z,18.90
2018-11-27T10:39:00.866Z,19.00
2018-11-27T10:39:55.208Z,19.00
2018-11-27T10:40:55.097Z,18.40
2018-11-27T10:41:55.001Z,18.20
2018-11-27T10:42:54.908Z,18.50
2018-11-27T10:43:54.927Z,18.40
2018-11-27T10:44:54.732Z,18.60
2018-11-27T10:45:54.619Z,19.30
2018-11-27T10:46:54.525Z,18.70
2018-11-27T10:47:54.446Z,18.80
2018-11-27T10:48:54.335Z,19.10
2018-11-27T10:49:54.257Z,18.90
2018-11-27T10:50:54.253Z,19.10
2018-11-27T10:51:54.052Z,18.50
2018-11-27T10:52:53.958Z,19.80
2018-11-27T10:53:53.863Z,19.60
2018-11-27T10:54:53.787Z,19.50
2018-11-27T10:55:53.673Z,19.90
2018-11-27T10:56:53.579Z,20.00
2018-11-27T10:57:53.601Z,20.50
2018-11-27T10:58:53.393Z,18.90
2018-11-27T10:59:53.314Z,20.20
2018-11-27T11:00:53.203Z,20.70
2018-11-27T11:01:53.116Z,21.00
2018-11-27T11:02:53.017Z,21.60
2018-11-27T11:03:52.919Z,20.30
2018-11-27T11:04:52.951Z,20.70
2018-11-27T11:05:52.731Z,20.00
2018-11-27T11:06:52.641Z,19.70
2018-11-27T11:07:52.555Z,20.40
2018-11-27T11:08:52.448Z,20.40
2018-11-27T11:09:52.355Z,19.80
2018-11-27T11:10:52.277Z,20.80
2018-11-27T11:11:52.267Z,21.00
2018-11-27T11:12:52.071Z,21.70
2018-11-27T11:13:51.975Z,22.20
2018-11-27T11:14:51.900Z,23.90
2018-11-27T11:15:51.784Z,22.30
2018-11-27T11:16:51.690Z,23.50
2018-11-27T11:17:51.595Z,23.10
2018-11-27T11:18:51.631Z,23.90
2018-11-27T11:19:51.405Z,22.70
2018-11-27T11:20:51.324Z,22.60
2018-11-27T11:21:51.212Z,22.10
2018-11-27T11:22:51.116Z,23.10
2018-11-27T11:23:51.027Z,22.80
2018-11-27T11:24:51.026Z,22.70
2018-11-27T11:25:50.845Z,23.30
2018-11-27T11:26:50.731Z,22.70
2018-11-27T11:27:50.636Z,22.20
2018-11-27T11:28:50.538Z,22.80
2018-11-27T11:29:50.444Z,21.60
2018-11-27T11:30:50.362Z,21.80
2018-11-27T11:31:50.256Z,22.70
2018-11-27T11:32:50.153Z,21.70
2018-11-27T11:33:50.059Z,21.80
2018-11-27T11:34:49.965Z,22.60
2018-11-27T11:35:49.882Z,22.30
2018-11-27T11:36:49.771Z,22.60
2018-11-27T11:37:49.676Z,21.90
2018-11-27T11:38:49.579Z,22.30
2018-11-27T11:39:49.485Z,21.90
2018-11-27T11:40:49.404Z,23.10
2018-11-27T11:41:49.296Z,22.90
2018-11-27T11:42:49.201Z,23.10
2018-11-27T11:43:49.104Z,22.40
2018-11-27T11:44:49.007Z,22.40
2018-11-27T11:45:48.929Z,22.00
2018-11-27T11:46:48.815Z,22.00
2018-11-27T11:47:48.719Z,21.60
2018-11-27T11:48:48.626Z,22.50
2018-11-27T11:49:48.529Z,22.20
2018-11-27T11:50:48.450Z,21.20
2018-11-27T11:51:48.341Z,20.00
2018-11-27T11:52:48.249Z,19.30
2018-11-27T11:53:48.146Z,20.40
2018-11-27T11:54:48.053Z,19.80
2018-11-27T11:55:47.972Z,18.60
2018-11-27T11:56:47.863Z,19.70
2018-11-27T11:57:47.773Z,19.50
2018-11-27T11:58:47.670Z,19.40
2018-11-27T11:59:47.577Z,19.50
2018-11-27T12:00:47.496Z,20.00
2018-11-27T12:01:47.385Z,19.50
2018-11-27T12:02:47.325Z,19.90
2018-11-27T12:03:47.192Z,20.90
2018-11-27T12:04:47.097Z,20.00
2018-11-27T12:05:47.017Z,20.50
2018-11-27T12:06:46.906Z,20.00
2018-11-27T12:07:46.810Z,20.30
2018-11-27T12:08:46.713Z,21.50
2018-11-27T12:09:46.621Z,21.10
2018-11-27T12:10:46.538Z,21.30
2018-11-27T12:11:46.428Z,20.80
2018-11-27T12:12:46.336Z,21.50
2018-11-27T12:13:46.232Z,21.60
2018-11-27T12:14:46.137Z,21.40
2018-11-27T12:15:46.057Z,22.00
2018-11-27T12:16:45.942Z,21.40
2018-11-27T12:17:45.849Z,21.40
2018-11-27T12:18:45.749Z,20.70
2018-11-27T12:19:45.653Z,21.70
2018-11-27T12:20:45.577Z,23.40
2018-11-27T12:21:45.460Z,24.30
2018-11-27T12:22:45.364Z,23.20
2018-11-27T12:23:45.262Z,23.50
2018-11-27T12:24:45.165Z,23.50
2018-11-27T12:25:45.084Z,22.20
2018-11-27T12:26:44.984Z,22.20
2018-11-27T12:27:44.872Z,23.50
2018-11-27T12:28:44.922Z,22.50
2018-11-27T12:29:44.678Z,22.00
2018-11-27T12:30:44.595Z,22.00
2018-11-27T12:31:44.481Z,23.10
2018-11-27T12:32:44.389Z,22.40
2018-11-27T12:33:44.287Z,23.10
2018-11-27T12:34:44.189Z,21.70
2018-11-27T12:35:44.105Z,23.40
2018-11-27T12:36:43.992Z,22.70
2018-11-27T12:37:43.894Z,23.20
2018-11-27T12:38:43.798Z,23.40
2018-11-27T12:39:43.697Z,23.10
2018-11-27T12:40:43.616Z,24.40
2018-11-27T12:41:43.606Z,24.40
2018-11-27T12:42:43.402Z,25.10
2018-11-27T12:43:43.303Z,24.10
2018-11-27T12:44:43.204Z,23.90
2018-11-27T12:45:43.123Z,24.00
2018-11-27T12:46:43.020Z,23.70
2018-11-27T12:47:42.911Z,24.70
2018-11-27T12:48:42.912Z,24.60
2018-11-27T12:49:42.712Z,24.00
2018-11-27T12:50:42.651Z,24.90